sensor_id;sensor_type;location;lat;lon;timestamp;pressure;altitude;pressure_sealevel;temperature;humidity
20971;BME280;10644;48.834;10.088;2023-02-28T00:00:40;97306.31;;;1.35;52.65
20971;BME280;10644;48.834;10.088;2023-02-28T00:03:14;97306.41;;;1.23;52.98
20971;BME280;10644;48.834;10.088;2023-02-28T00:05:40;97302.97;;;1.30;52.98
20971;BME280;10644;48.834;10.088;2023-02-28T00:08:13;97306.41;;;1.23;53.29
20971;BME280;10644;48.834;10.088;2023-02-28T00:10:43;97298.78;;;1.32;53.25
20971;BME280;10644;48.834;10.088;2023-02-28T00:13:13;97299.59;;;1.31;53.14
20971;BME280;10644;48.834;10.088;2023-02-28T00:15:39;97291.91;;;1.46;53.09
20971;BME280;10644;48.834;10.088;2023-02-28T00:18:09;97292.81;;;1.39;53.14
20971;BME280;10644;48.834;10.088;2023-02-28T00:20:54;97296.28;;;1.29;53.68
20971;BME280;10644;48.834;10.088;2023-02-28T00:23:27;97296.34;;;1.20;54.14
20971;BME280;10644;48.834;10.088;2023-02-28T00:26:03;97291.16;;;1.38;53.45
20971;BME280;10644;48.834;10.088;2023-02-28T00:28:28;97282.78;;;1.33;53.96
20971;BME280;10644;48.834;10.088;2023-02-28T00:31:03;97281.94;;;1.33;53.60
20971;BME280;10644;48.834;10.088;2023-02-28T00:33:42;97291.97;;;1.42;53.95
20971;BME280;10644;48.834;10.088;2023-02-28T00:36:10;97293.75;;;1.31;54.18
20971;BME280;10644;48.834;10.088;2023-02-28T00:38:54;97284.41;;;1.40;54.12
20971;BME280;10644;48.834;10.088;2023-02-28T00:41:20;97287.94;;;1.21;54.57
20971;BME280;10644;48.834;10.088;2023-02-28T00:43:56;97288.66;;;1.35;54.10
20971;BME280;10644;48.834;10.088;2023-02-28T00:46:32;97290.25;;;1.42;54.35
20971;BME280;10644;48.834;10.088;2023-02-28T00:49:01;97292.88;;;1.33;54.84
20971;BME280;10644;48.834;10.088;2023-02-28T00:51:32;97287.75;;;1.42;54.72
20971;BME280;10644;48.834;10.088;2023-02-28T00:53:57;97279.28;;;1.49;53.87
20971;BME280;10644;48.834;10.088;2023-02-28T00:56:23;97291.00;;;1.56;53.93
20971;BME280;10644;48.834;10.088;2023-02-28T00:58:51;97284.16;;;1.64;53.92
20971;BME280;10644;48.834;10.088;2023-02-28T01:01:17;97284.22;;;1.58;54.17
20971;BME280;10644;48.834;10.088;2023-02-28T01:03:54;97286.16;;;1.32;55.03
20971;BME280;10644;48.834;10.088;2023-02-28T01:06:23;97281.38;;;0.99;56.03
20971;BME280;10644;48.834;10.088;2023-02-28T01:09:09;97280.44;;;1.11;55.63
20971;BME280;10644;48.834;10.088;2023-02-28T01:11:36;97287.84;;;1.30;55.16
20971;BME280;10644;48.834;10.088;2023-02-28T01:14:03;97280.31;;;1.27;55.33
20971;BME280;10644;48.834;10.088;2023-02-28T01:16:39;97282.03;;;1.22;55.18
20971;BME280;10644;48.834;10.088;2023-02-28T01:19:31;97277.91;;;1.15;55.95
20971;BME280;10644;48.834;10.088;2023-02-28T01:22:03;97272.81;;;1.21;55.53
20971;BME280;10644;48.834;10.088;2023-02-28T01:24:34;97272.00;;;1.16;55.68
20971;BME280;10644;48.834;10.088;2023-02-28T01:27:00;97281.13;;;1.32;55.39
20971;BME280;10644;48.834;10.088;2023-02-28T01:29:36;97283.81;;;1.08;56.10
20971;BME280;10644;48.834;10.088;2023-02-28T01:32:14;97283.72;;;1.20;55.59
20971;BME280;10644;48.834;10.088;2023-02-28T01:34:42;97281.94;;;1.33;55.28
20971;BME280;10644;48.834;10.088;2023-02-28T01:37:32;97283.66;;;1.26;55.46
20971;BME280;10644;48.834;10.088;2023-02-28T01:40:00;97280.50;;;1.05;56.29
20971;BME280;10644;48.834;10.088;2023-02-28T01:42:27;97284.06;;;0.75;56.76
20971;BME280;10644;48.834;10.088;2023-02-28T01:47:54;97287.34;;;0.89;56.59
20971;BME280;10644;48.834;10.088;2023-02-28T01:50:25;97280.59;;;0.94;56.61
20971;BME280;10644;48.834;10.088;2023-02-28T01:53:03;97283.06;;;0.97;56.52
20971;BME280;10644;48.834;10.088;2023-02-28T01:55:30;97274.59;;;1.10;56.19
20971;BME280;10644;48.834;10.088;2023-02-28T01:58:04;97270.63;;;0.75;57.16
20971;BME280;10644;48.834;10.088;2023-02-28T02:00:32;97274.75;;;0.86;56.92
20971;BME280;10644;48.834;10.088;2023-02-28T02:03:11;97275.34;;;1.20;56.56
20971;BME280;10644;48.834;10.088;2023-02-28T02:05:46;97266.16;;;1.08;56.44
20971;BME280;10644;48.834;10.088;2023-02-28T02:08:28;97264.50;;;1.10;56.22
20971;BME280;10644;48.834;10.088;2023-02-28T02:10:59;97265.47;;;0.91;56.92
20971;BME280;10644;48.834;10.088;2023-02-28T02:30:54;97260.03;;;1.39;55.63
20971;BME280;10644;48.834;10.088;2023-02-28T02:40:02;97263.69;;;1.07;56.85
20971;BME280;10644;48.834;10.088;2023-02-28T02:42:44;97251.91;;;1.07;57.12
20971;BME280;10644;48.834;10.088;2023-02-28T02:48:09;97254.34;;;1.16;56.75
20971;BME280;10644;48.834;10.088;2023-02-28T02:50:59;97262.66;;;1.27;56.58
20971;BME280;10644;48.834;10.088;2023-02-28T02:56:38;97259.63;;;0.88;57.98
20971;BME280;10644;48.834;10.088;2023-02-28T02:59:11;97251.13;;;0.99;57.49
20971;BME280;10644;48.834;10.088;2023-02-28T03:01:41;97263.59;;;1.17;57.27
20971;BME280;10644;48.834;10.088;2023-02-28T03:04:21;97259.31;;;1.25;57.48
20971;BME280;10644;48.834;10.088;2023-02-28T03:06:52;97260.16;;;1.24;57.19
20971;BME280;10644;48.834;10.088;2023-02-28T03:09:50;97261.88;;;1.24;57.20
20971;BME280;10644;48.834;10.088;2023-02-28T03:12:40;97261.03;;;1.22;57.45
20971;BME280;10644;48.834;10.088;2023-02-28T03:18:00;97256.06;;;1.11;57.70
20971;BME280;10644;48.834;10.088;2023-02-28T03:23:45;97265.00;;;0.32;59.83
20971;BME280;10644;48.834;10.088;2023-02-28T03:26:21;97257.47;;;0.32;59.85
20971;BME280;10644;48.834;10.088;2023-02-28T03:29:00;97263.34;;;0.28;59.89
20971;BME280;10644;48.834;10.088;2023-02-28T03:31:40;97261.69;;;0.27;60.27
20971;BME280;10644;48.834;10.088;2023-02-28T03:34:15;97256.53;;;0.45;59.91
20971;BME280;10644;48.834;10.088;2023-02-28T03:36:48;97253.81;;;0.78;59.06
20971;BME280;10644;48.834;10.088;2023-02-28T03:39:20;97254.56;;;0.86;58.59
20971;BME280;10644;48.834;10.088;2023-02-28T03:42:11;97262.25;;;0.71;59.27
20971;BME280;10644;48.834;10.088;2023-02-28T03:44:48;97243.78;;;0.74;58.45
20971;BME280;10644;48.834;10.088;2023-02-28T03:47:22;97260.69;;;0.55;59.21
20971;BME280;10644;48.834;10.088;2023-02-28T03:49:53;97265.78;;;0.42;60.16
20971;BME280;10644;48.834;10.088;2023-02-28T03:52:25;97253.16;;;0.46;59.48
20971;BME280;10644;48.834;10.088;2023-02-28T03:54:56;97264.88;;;0.56;59.24
20971;BME280;10644;48.834;10.088;2023-02-28T04:00:40;97265.59;;;0.75;59.04
20971;BME280;10644;48.834;10.088;2023-02-28T04:03:13;97257.31;;;0.56;59.40
20971;BME280;10644;48.834;10.088;2023-02-28T04:06:03;97270.63;;;0.72;59.02
20971;BME280;10644;48.834;10.088;2023-02-28T04:08:51;97274.16;;;0.48;59.85
20971;BME280;10644;48.834;10.088;2023-02-28T04:11:18;97273.28;;;0.55;59.58
20971;BME280;10644;48.834;10.088;2023-02-28T04:13:49;97280.72;;;0.73;59.41
20971;BME280;10644;48.834;10.088;2023-02-28T04:16:16;97271.44;;;0.78;58.81
20971;BME280;10644;48.834;10.088;2023-02-28T04:18:42;97276.63;;;0.56;59.32
20971;BME280;10644;48.834;10.088;2023-02-28T04:21:10;97280.81;;;0.60;59.47
20971;BME280;10644;48.834;10.088;2023-02-28T04:23:36;97273.06;;;0.88;58.76
20971;BME280;10644;48.834;10.088;2023-02-28T04:26:02;97268.78;;;0.99;58.38
20971;BME280;10644;48.834;10.088;2023-02-28T04:28:28;97262.91;;;0.97;58.32
20971;BME280;10644;48.834;10.088;2023-02-28T04:31:02;97271.25;;;1.02;58.44
20971;BME280;10644;48.834;10.088;2023-02-28T04:33:30;97276.44;;;0.81;58.70
20971;BME280;10644;48.834;10.088;2023-02-28T04:36:07;97277.22;;;0.92;58.71
20971;BME280;10644;48.834;10.088;2023-02-28T04:38:39;97276.25;;;1.11;57.99
20971;BME280;10644;48.834;10.088;2023-02-28T04:41:09;97274.53;;;1.13;57.73
20971;BME280;10644;48.834;10.088;2023-02-28T04:43:53;97272.25;;;0.80;58.53
20971;BME280;10644;48.834;10.088;2023-02-28T04:46:22;97277.34;;;0.77;58.92
20971;BME280;10644;48.834;10.088;2023-02-28T04:48:48;97283.19;;;0.79;58.91
20971;BME280;10644;48.834;10.088;2023-02-28T04:51:15;97281.56;;;0.69;59.32
20971;BME280;10644;48.834;10.088;2023-02-28T04:53:48;97283.06;;;1.00;58.83
20971;BME280;10644;48.834;10.088;2023-02-28T04:56:15;97277.25;;;0.91;58.74
20971;BME280;10644;48.834;10.088;2023-02-28T04:58:42;97281.34;;;1.05;58.20
20971;BME280;10644;48.834;10.088;2023-02-28T05:01:36;97293.19;;;0.91;58.75
20971;BME280;10644;48.834;10.088;2023-02-28T05:04:19;97291.53;;;0.90;58.84
20971;BME280;10644;48.834;10.088;2023-02-28T05:06:46;97288.06;;;1.03;58.22
20971;BME280;10644;48.834;10.088;2023-02-28T05:09:16;97283.09;;;0.94;58.61
20971;BME280;10644;48.834;10.088;2023-02-28T05:11:42;97280.34;;;1.26;57.84
20971;BME280;10644;48.834;10.088;2023-02-28T05:14:18;97283.78;;;1.16;57.56
20971;BME280;10644;48.834;10.088;2023-02-28T05:16:49;97287.09;;;1.21;58.21
20971;BME280;10644;48.834;10.088;2023-02-28T05:19:15;97288.91;;;1.05;58.17
20971;BME280;10644;48.834;10.088;2023-02-28T05:21:48;97280.59;;;0.91;58.92
20971;BME280;10644;48.834;10.088;2023-02-28T05:24:14;97279.00;;;0.80;58.71
20971;BME280;10644;48.834;10.088;2023-02-28T05:26:41;97289.88;;;0.86;58.90
20971;BME280;10644;48.834;10.088;2023-02-28T05:29:18;97296.63;;;0.81;58.83
20971;BME280;10644;48.834;10.088;2023-02-28T05:31:50;97295.06;;;0.65;58.98
20971;BME280;10644;48.834;10.088;2023-02-28T05:34:45;97285.75;;;0.75;59.20
20971;BME280;10644;48.834;10.088;2023-02-28T05:37:14;97292.50;;;0.70;59.23
20971;BME280;10644;48.834;10.088;2023-02-28T05:39:51;97293.50;;;0.40;60.31
20971;BME280;10644;48.834;10.088;2023-02-28T05:42:18;97290.09;;;0.53;60.04
20971;BME280;10644;48.834;10.088;2023-02-28T05:45:22;97293.19;;;0.91;59.13
20971;BME280;10644;48.834;10.088;2023-02-28T05:47:58;97294.84;;;0.92;58.97
20971;BME280;10644;48.834;10.088;2023-02-28T05:50:28;97296.59;;;0.84;58.77
20971;BME280;10644;48.834;10.088;2023-02-28T05:53:22;97287.38;;;0.82;58.80
20971;BME280;10644;48.834;10.088;2023-02-28T05:55:52;97288.06;;;1.03;58.80
20971;BME280;10644;48.834;10.088;2023-02-28T05:58:27;97300.00;;;0.80;59.13
20971;BME280;10644;48.834;10.088;2023-02-28T06:00:59;97282.38;;;0.73;59.31
20971;BME280;10644;48.834;10.088;2023-02-28T06:04:02;97292.28;;;1.04;58.85
20971;BME280;10644;48.834;10.088;2023-02-28T06:06:36;97300.91;;;0.70;59.38
20971;BME280;10644;48.834;10.088;2023-02-28T06:09:10;97299.13;;;0.81;59.11
20971;BME280;10644;48.834;10.088;2023-02-28T06:11:51;97304.16;;;0.84;59.34
20971;BME280;10644;48.834;10.088;2023-02-28T06:14:23;97302.50;;;0.83;58.39
20971;BME280;10644;48.834;10.088;2023-02-28T06:16:48;97304.84;;;1.07;57.95
20971;BME280;10644;48.834;10.088;2023-02-28T06:19:23;97310.03;;;0.86;58.84
20971;BME280;10644;48.834;10.088;2023-02-28T06:21:51;97304.97;;;0.89;58.69
20971;BME280;10644;48.834;10.088;2023-02-28T06:24:21;97308.19;;;1.12;58.01
20971;BME280;10644;48.834;10.088;2023-02-28T06:27:16;97311.47;;;1.20;58.20
20971;BME280;10644;48.834;10.088;2023-02-28T06:29:55;97312.25;;;1.28;57.73
20971;BME280;10644;48.834;10.088;2023-02-28T06:32:26;97314.03;;;1.17;57.57
20971;BME280;10644;48.834;10.088;2023-02-28T06:34:54;97320.09;;;0.89;58.18
20971;BME280;10644;48.834;10.088;2023-02-28T06:37:23;97324.28;;;0.89;58.76
20971;BME280;10644;48.834;10.088;2023-02-28T06:39:54;97318.28;;;1.09;58.04
20971;BME280;10644;48.834;10.088;2023-02-28T06:42:44;97323.56;;;0.76;58.68
20971;BME280;10644;48.834;10.088;2023-02-28T06:45:19;97325.06;;;1.04;58.38
20971;BME280;10644;48.834;10.088;2023-02-28T06:47:58;97318.44;;;0.88;58.52
20971;BME280;10644;48.834;10.088;2023-02-28T06:50:33;97314.13;;;1.02;58.61
20971;BME280;10644;48.834;10.088;2023-02-28T06:53:09;97317.41;;;1.12;58.35
20971;BME280;10644;48.834;10.088;2023-02-28T06:55:43;97318.25;;;1.15;57.35
20971;BME280;10644;48.834;10.088;2023-02-28T06:58:18;97321.63;;;1.11;57.72
20971;BME280;10644;48.834;10.088;2023-02-28T07:00:50;97337.78;;;0.80;58.59
20971;BME280;10644;48.834;10.088;2023-02-28T07:03:19;97329.28;;;0.99;59.10
20971;BME280;10644;48.834;10.088;2023-02-28T07:05:48;97330.91;;;1.08;58.79
20971;BME280;10644;48.834;10.088;2023-02-28T07:08:20;97330.16;;;0.92;58.28
20971;BME280;10644;48.834;10.088;2023-02-28T07:11:03;97336.91;;;0.90;58.63
20971;BME280;10644;48.834;10.088;2023-02-28T07:13:31;97342.72;;;1.03;58.16
20971;BME280;10644;48.834;10.088;2023-02-28T07:16:01;97343.56;;;1.00;58.13
20971;BME280;10644;48.834;10.088;2023-02-28T07:19:00;97346.91;;;1.02;58.41
20971;BME280;10644;48.834;10.088;2023-02-28T07:21:35;97355.19;;;1.18;57.67
20971;BME280;10644;48.834;10.088;2023-02-28T07:24:16;97362.13;;;0.84;58.09
20971;BME280;10644;48.834;10.088;2023-02-28T07:26:44;97363.72;;;0.99;58.33
20971;BME280;10644;48.834;10.088;2023-02-28T07:29:09;97359.53;;;0.99;58.25
20971;BME280;10644;48.834;10.088;2023-02-28T07:31:35;97367.19;;;0.84;58.60
20971;BME280;10644;48.834;10.088;2023-02-28T07:34:32;97367.22;;;0.78;58.38
20971;BME280;10644;48.834;10.088;2023-02-28T07:36:58;97363.72;;;0.97;58.57
20971;BME280;10644;48.834;10.088;2023-02-28T07:42:41;97355.13;;;1.30;57.84
20971;BME280;10644;48.834;10.088;2023-02-28T07:45:12;97352.47;;;1.49;57.16
20971;BME280;10644;48.834;10.088;2023-02-28T07:47:42;97359.13;;;1.56;56.61
20971;BME280;10644;48.834;10.088;2023-02-28T07:50:10;97359.16;;;1.52;56.88
20971;BME280;10644;48.834;10.088;2023-02-28T07:52:44;97361.75;;;1.43;57.13
20971;BME280;10644;48.834;10.088;2023-02-28T07:55:10;97364.31;;;1.38;56.72
20971;BME280;10644;48.834;10.088;2023-02-28T07:57:39;97351.56;;;1.53;57.19
20971;BME280;10644;48.834;10.088;2023-02-28T08:00:07;97357.97;;;1.87;55.94
20971;BME280;10644;48.834;10.088;2023-02-28T08:02:49;97359.78;;;1.76;55.78
20971;BME280;10644;48.834;10.088;2023-02-28T08:05:27;97355.69;;;1.63;56.05
20971;BME280;10644;48.834;10.088;2023-02-28T08:08:00;97367.38;;;1.73;56.64
20971;BME280;10644;48.834;10.088;2023-02-28T08:10:39;97364.56;;;2.03;55.67
20971;BME280;10644;48.834;10.088;2023-02-28T08:13:07;97376.47;;;1.92;55.61
20971;BME280;10644;48.834;10.088;2023-02-28T08:15:37;97368.13;;;1.81;56.15
20971;BME280;10644;48.834;10.088;2023-02-28T08:18:03;97365.22;;;2.20;57.76
20971;BME280;10644;48.834;10.088;2023-02-28T08:20:50;97359.44;;;2.82;55.71
20971;BME280;10644;48.834;10.088;2023-02-28T08:23:15;97355.00;;;2.99;55.33
20971;BME280;10644;48.834;10.088;2023-02-28T08:25:41;97360.41;;;2.73;53.87
20971;BME280;10644;48.834;10.088;2023-02-28T08:28:38;97357.28;;;2.52;53.83
20971;BME280;10644;48.834;10.088;2023-02-28T08:31:26;97366.16;;;2.10;55.10
20971;BME280;10644;48.834;10.088;2023-02-28T08:33:51;97360.31;;;2.10;55.14
20971;BME280;10644;48.834;10.088;2023-02-28T08:36:26;97355.13;;;2.20;54.95
20971;BME280;10644;48.834;10.088;2023-02-28T08:39:00;97352.38;;;2.38;54.65
20971;BME280;10644;48.834;10.088;2023-02-28T08:44:42;97352.78;;;2.75;54.97
20971;BME280;10644;48.834;10.088;2023-02-28T08:47:16;97349.81;;;3.06;53.48
20971;BME280;10644;48.834;10.088;2023-02-28T08:49:41;97355.34;;;3.32;53.99
20971;BME280;10644;48.834;10.088;2023-02-28T08:52:08;97357.16;;;3.77;52.77
20971;BME280;10644;48.834;10.088;2023-02-28T08:54:42;97358.09;;;3.17;51.61
20971;BME280;10644;48.834;10.088;2023-02-28T08:57:16;97355.72;;;3.07;52.24
20971;BME280;10644;48.834;10.088;2023-02-28T08:59:41;97360.34;;;2.76;52.73
20971;BME280;10644;48.834;10.088;2023-02-28T09:02:13;97371.31;;;2.77;53.13
20971;BME280;10644;48.834;10.088;2023-02-28T09:04:44;97355.13;;;2.90;52.75
20971;BME280;10644;48.834;10.088;2023-02-28T09:07:26;97356.69;;;2.98;52.38
20971;BME280;10644;48.834;10.088;2023-02-28T09:09:53;97362.97;;;2.69;52.18
20971;BME280;10644;48.834;10.088;2023-02-28T09:15:28;97367.81;;;2.17;53.53
20971;BME280;10644;48.834;10.088;2023-02-28T09:17:54;97372.00;;;2.20;53.49
20971;BME280;10644;48.834;10.088;2023-02-28T09:20:25;97371.13;;;2.19;53.83
20971;BME280;10644;48.834;10.088;2023-02-28T09:23:02;97358.16;;;2.49;53.40
20971;BME280;10644;48.834;10.088;2023-02-28T09:25:51;97368.63;;;2.90;52.67
20971;BME280;10644;48.834;10.088;2023-02-28T09:28:19;97370.63;;;3.26;52.02
20971;BME280;10644;48.834;10.088;2023-02-28T09:30:54;97363.06;;;3.23;52.89
20971;BME280;10644;48.834;10.088;2023-02-28T09:33:25;97371.41;;;3.31;50.98
20971;BME280;10644;48.834;10.088;2023-02-28T09:36:04;97374.00;;;3.25;51.51
20971;BME280;10644;48.834;10.088;2023-02-28T09:38:35;97362.84;;;3.38;50.95
20971;BME280;10644;48.834;10.088;2023-02-28T09:41:16;97370.97;;;3.58;50.77
20971;BME280;10644;48.834;10.088;2023-02-28T09:43:46;97374.59;;;3.42;50.31
20971;BME280;10644;48.834;10.088;2023-02-28T09:49:31;97378.09;;;3.35;50.92
20971;BME280;10644;48.834;10.088;2023-02-28T09:52:30;97367.59;;;3.59;50.59
20971;BME280;10644;48.834;10.088;2023-02-28T09:58:03;97371.69;;;3.66;50.62
20971;BME280;10644;48.834;10.088;2023-02-28T10:01:09;97375.41;;;3.97;49.91
20971;BME280;10644;48.834;10.088;2023-02-28T10:03:39;97380.06;;;4.18;49.11
20971;BME280;10644;48.834;10.088;2023-02-28T10:06:30;97377.84;;;4.02;49.47
20971;BME280;10644;48.834;10.088;2023-02-28T10:09:05;97377.59;;;4.15;49.08
20971;BME280;10644;48.834;10.088;2023-02-28T10:11:43;97380.88;;;4.22;48.88
20971;BME280;10644;48.834;10.088;2023-02-28T10:14:29;97382.41;;;4.29;48.76
20971;BME280;10644;48.834;10.088;2023-02-28T10:17:11;97388.88;;;3.98;49.03
20971;BME280;10644;48.834;10.088;2023-02-28T10:33:05;97384.34;;;4.16;49.94
20971;BME280;10644;48.834;10.088;2023-02-28T10:35:55;97376.25;;;4.42;48.85
20971;BME280;10644;48.834;10.088;2023-02-28T10:38:43;97377.38;;;4.71;48.38
20971;BME280;10644;48.834;10.088;2023-02-28T10:41:26;97370.28;;;4.85;47.46
20971;BME280;10644;48.834;10.088;2023-02-28T10:44:20;97382.06;;;4.89;47.95
20971;BME280;10644;48.834;10.088;2023-02-28T10:46:48;97370.16;;;4.91;45.98
20971;BME280;10644;48.834;10.088;2023-02-28T10:49:27;97381.59;;;4.71;46.21
20971;BME280;10644;48.834;10.088;2023-02-28T10:52:11;97378.66;;;4.90;46.19
20971;BME280;10644;48.834;10.088;2023-02-28T10:54:40;97377.72;;;4.94;46.02
20971;BME280;10644;48.834;10.088;2023-02-28T10:57:08;97365.63;;;5.07;45.51
20971;BME280;10644;48.834;10.088;2023-02-28T10:59:39;97361.19;;;5.53;45.29
20971;BME280;10644;48.834;10.088;2023-02-28T11:02:42;97376.97;;;5.65;44.91
20971;BME280;10644;48.834;10.088;2023-02-28T11:05:31;97374.59;;;5.58;44.84
20971;BME280;10644;48.834;10.088;2023-02-28T11:08:19;97377.66;;;5.35;45.06
20971;BME280;10644;48.834;10.088;2023-02-28T11:10:55;97363.44;;;5.63;44.58
20971;BME280;10644;48.834;10.088;2023-02-28T11:13:28;97362.88;;;5.87;44.45
20971;BME280;10644;48.834;10.088;2023-02-28T11:15:59;97372.06;;;5.94;43.74
20971;BME280;10644;48.834;10.088;2023-02-28T11:21:08;97360.53;;;6.45;42.97
20971;BME280;10644;48.834;10.088;2023-02-28T11:23:58;97353.53;;;6.52;42.26
20971;BME280;10644;48.834;10.088;2023-02-28T11:26:37;97356.34;;;6.11;43.06
20971;BME280;10644;48.834;10.088;2023-02-28T11:29:32;97339.69;;;6.31;43.51
20971;BME280;10644;48.834;10.088;2023-02-28T11:32:29;97358.31;;;6.64;42.70
20971;BME280;10644;48.834;10.088;2023-02-28T11:37:53;97351.88;;;6.81;41.91
20971;BME280;10644;48.834;10.088;2023-02-28T11:53:05;97344.22;;;7.38;41.62
20971;BME280;10644;48.834;10.088;2023-02-28T11:56:00;97348.75;;;7.56;41.75
20971;BME280;10644;48.834;10.088;2023-02-28T12:01:26;97343.09;;;7.98;39.23
20971;BME280;10644;48.834;10.088;2023-02-28T12:07:46;97338.97;;;8.91;39.01
20971;BME280;10644;48.834;10.088;2023-02-28T12:10:29;97342.34;;;8.68;37.66
20971;BME280;10644;48.834;10.088;2023-02-28T12:13:21;97336.03;;;8.78;39.17
20971;BME280;10644;48.834;10.088;2023-02-28T12:21:35;97344.31;;;7.87;39.61
20971;BME280;10644;48.834;10.088;2023-02-28T12:26:45;97341.13;;;7.54;39.63
20971;BME280;10644;48.834;10.088;2023-02-28T12:29:49;97340.44;;;7.49;40.84
20971;BME280;10644;48.834;10.088;2023-02-28T12:32:41;97343.59;;;7.83;39.50
20971;BME280;10644;48.834;10.088;2023-02-28T12:35:18;97335.59;;;7.94;39.49
20971;BME280;10644;48.834;10.088;2023-02-28T12:38:31;97332.59;;;8.07;39.55
20971;BME280;10644;48.834;10.088;2023-02-28T12:43:42;97327.66;;;8.27;39.56
20971;BME280;10644;48.834;10.088;2023-02-28T12:46:25;97331.34;;;8.43;38.47
20971;BME280;10644;48.834;10.088;2023-02-28T12:52:13;97320.91;;;8.49;38.90
20971;BME280;10644;48.834;10.088;2023-02-28T12:55:00;97316.06;;;8.17;38.72
20971;BME280;10644;48.834;10.088;2023-02-28T13:00:25;97318.63;;;8.17;39.10
20971;BME280;10644;48.834;10.088;2023-02-28T13:03:06;97316.13;;;8.40;39.08
20971;BME280;10644;48.834;10.088;2023-02-28T13:17:33;97314.81;;;8.76;37.97
20971;BME280;10644;48.834;10.088;2023-02-28T13:20:21;97308.81;;;8.54;38.23
20971;BME280;10644;48.834;10.088;2023-02-28T13:22:50;97310.84;;;8.69;38.29
20971;BME280;10644;48.834;10.088;2023-02-28T13:28:10;97305.25;;;9.04;39.27
20971;BME280;10644;48.834;10.088;2023-02-28T13:33:35;97299.81;;;8.67;38.81
20971;BME280;10644;48.834;10.088;2023-02-28T13:52:10;97305.94;;;9.29;40.37
20971;BME280;10644;48.834;10.088;2023-02-28T13:54:58;97291.09;;;9.17;39.34
20971;BME280;10644;48.834;10.088;2023-02-28T14:01:11;97302.59;;;8.84;39.17
20971;BME280;10644;48.834;10.088;2023-02-28T14:03:51;97303.94;;;8.48;39.54
20971;BME280;10644;48.834;10.088;2023-02-28T14:06:37;97298.94;;;8.45;39.73
20971;BME280;10644;48.834;10.088;2023-02-28T14:09:31;97289.34;;;8.75;39.82
20971;BME280;10644;48.834;10.088;2023-02-28T14:15:03;97307.84;;;8.81;41.89
20971;BME280;10644;48.834;10.088;2023-02-28T14:17:40;97308.38;;;8.66;39.16
20971;BME280;10644;48.834;10.088;2023-02-28T14:20:15;97287.41;;;9.03;41.66
20971;BME280;10644;48.834;10.088;2023-02-28T14:22:51;97301.16;;;8.77;39.16
20971;BME280;10644;48.834;10.088;2023-02-28T14:26:26;97302.50;;;8.87;38.56
20971;BME280;10644;48.834;10.088;2023-02-28T14:31:57;97301.16;;;8.77;39.44
20971;BME280;10644;48.834;10.088;2023-02-28T14:34:37;97301.44;;;8.70;38.99
20971;BME280;10644;48.834;10.088;2023-02-28T14:37:18;97307.78;;;8.35;40.12
20971;BME280;10644;48.834;10.088;2023-02-28T14:39:50;97307.03;;;8.56;39.35
20971;BME280;10644;48.834;10.088;2023-02-28T14:45:00;97314.28;;;9.34;41.84
20971;BME280;10644;48.834;10.088;2023-02-28T14:47:31;97308.75;;;9.86;38.84
20971;BME280;10644;48.834;10.088;2023-02-28T14:50:05;97302.72;;;9.67;37.35
20971;BME280;10644;48.834;10.088;2023-02-28T14:52:38;97309.00;;;9.17;38.22
20971;BME280;10644;48.834;10.088;2023-02-28T14:55:10;97312.63;;;8.66;39.24
20971;BME280;10644;48.834;10.088;2023-02-28T14:58:06;97324.19;;;8.76;39.38
20971;BME280;10644;48.834;10.088;2023-02-28T15:00:55;97320.25;;;8.67;39.55
20971;BME280;10644;48.834;10.088;2023-02-28T15:03:32;97317.63;;;8.92;38.97
20971;BME280;10644;48.834;10.088;2023-02-28T15:06:16;97318.59;;;7.93;40.01
20971;BME280;10644;48.834;10.088;2023-02-28T15:08:44;97316.63;;;7.50;41.22
20971;BME280;10644;48.834;10.088;2023-02-28T15:11:19;97327.63;;;7.52;41.55
20971;BME280;10644;48.834;10.088;2023-02-28T15:13:54;97316.47;;;7.81;41.24
20971;BME280;10644;48.834;10.088;2023-02-28T15:19:06;97325.31;;;7.95;41.03
20971;BME280;10644;48.834;10.088;2023-02-28T15:21:44;97331.44;;;7.91;40.91
20971;BME280;10644;48.834;10.088;2023-02-28T15:24:41;97326.91;;;7.73;40.74
20971;BME280;10644;48.834;10.088;2023-02-28T15:30:00;97337.78;;;8.04;41.77
20971;BME280;10644;48.834;10.088;2023-02-28T15:32:35;97333.88;;;7.94;41.04
20971;BME280;10644;48.834;10.088;2023-02-28T15:40:44;97333.13;;;7.65;41.65
20971;BME280;10644;48.834;10.088;2023-02-28T15:43:38;97340.06;;;7.87;41.73
20971;BME280;10644;48.834;10.088;2023-02-28T15:46:10;97322.28;;;7.84;41.10
20971;BME280;10644;48.834;10.088;2023-02-28T15:48:55;97328.09;;;8.14;41.25
20971;BME280;10644;48.834;10.088;2023-02-28T15:51:38;97337.16;;;7.98;40.38
20971;BME280;10644;48.834;10.088;2023-02-28T15:54:08;97337.78;;;7.78;41.01
20971;BME280;10644;48.834;10.088;2023-02-28T15:56:45;97339.66;;;7.73;41.29
20971;BME280;10644;48.834;10.088;2023-02-28T15:59:25;97346.78;;;7.38;42.24
20971;BME280;10644;48.834;10.088;2023-02-28T16:02:17;97342.03;;;7.53;42.17
20971;BME280;10644;48.834;10.088;2023-02-28T16:04:59;97338.13;;;7.42;41.94
20971;BME280;10644;48.834;10.088;2023-02-28T16:07:34;97337.19;;;7.44;42.02
20971;BME280;10644;48.834;10.088;2023-02-28T16:10:00;97339.66;;;7.20;41.72
20971;BME280;10644;48.834;10.088;2023-02-28T16:12:31;97346.13;;;7.04;42.90
20971;BME280;10644;48.834;10.088;2023-02-28T16:15:08;97347.69;;;7.08;42.61
20971;BME280;10644;48.834;10.088;2023-02-28T16:17:49;97342.09;;;7.24;42.23
20971;BME280;10644;48.834;10.088;2023-02-28T16:20:29;97350.47;;;7.00;42.78
20971;BME280;10644;48.834;10.088;2023-02-28T16:22:54;97350.91;;;6.85;43.20
20971;BME280;10644;48.834;10.088;2023-02-28T16:28:00;97352.13;;;7.01;43.07
20971;BME280;10644;48.834;10.088;2023-02-28T16:30:27;97354.16;;;6.90;43.37
20971;BME280;10644;48.834;10.088;2023-02-28T16:32:58;97350.38;;;7.03;43.23
20971;BME280;10644;48.834;10.088;2023-02-28T16:35:29;97346.53;;;7.18;42.99
20971;BME280;10644;48.834;10.088;2023-02-28T16:37:54;97351.16;;;7.33;42.27